createdAt,value
2022-10-15T00:00:37.172Z,13.8
2022-10-15T00:01:37.103Z,13.8
2022-10-15T00:02:37.055Z,13.8
2022-10-15T00:03:37.163Z,13.8
2022-10-15T00:04:37.098Z,13.8
2022-10-15T00:05:37.077Z,13.7
2022-10-15T00:06:37.084Z,13.7
2022-10-15T00:07:37.087Z,13.7
2022-10-15T00:08:37.093Z,13.8
2022-10-15T00:09:37.037Z,13.8
2022-10-15T00:10:37.114Z,13.8
2022-10-15T00:11:37.142Z,13.8
2022-10-15T00:12:37.114Z,13.8
2022-10-15T00:13:37.129Z,13.8
2022-10-15T00:14:37.039Z,13.8
2022-10-15T00:15:37.053Z,13.7
2022-10-15T00:16:37.146Z,13.7
2022-10-15T00:17:37.146Z,13.7
2022-10-15T00:18:37.057Z,13.7
2022-10-15T00:19:37.158Z,13.7
2022-10-15T00:20:37.177Z,13.7
2022-10-15T00:21:37.069Z,13.6
2022-10-15T00:22:37.071Z,13.6
2022-10-15T00:23:37.060Z,13.7
2022-10-15T00:24:37.085Z,13.7
2022-10-15T00:25:37.094Z,13.6
2022-10-15T00:26:37.108Z,13.7
2022-10-15T00:27:37.046Z,13.6
2022-10-15T00:28:37.164Z,13.7
2022-10-15T00:29:37.159Z,13.7
2022-10-15T00:30:37.135Z,13.7
2022-10-15T00:31:37.135Z,13.6
2022-10-15T00:32:37.147Z,13.6
2022-10-15T00:33:37.153Z,13.6
2022-10-15T00:34:37.157Z,13.6
2022-10-15T00:35:37.166Z,13.6
2022-10-15T00:36:37.070Z,13.6
2022-10-15T00:37:37.075Z,13.6
2022-10-15T00:38:37.078Z,13.6
2022-10-15T00:39:37.074Z,13.6
2022-10-15T00:40:37.046Z,13.6
2022-10-15T00:41:37.091Z,13.6
2022-10-15T00:42:37.099Z,13.6
2022-10-15T00:43:37.088Z,13.6
2022-10-15T00:44:37.115Z,13.6
2022-10-15T00:45:37.123Z,13.6
2022-10-15T00:46:37.130Z,13.6
2022-10-15T00:47:37.039Z,13.6
2022-10-15T00:48:37.062Z,13.6
2022-10-15T00:49:37.047Z,13.6
2022-10-15T00:50:37.058Z,13.6
2022-10-15T00:51:37.080Z,13.6
2022-10-15T00:52:37.018Z,13.6
2022-10-15T00:53:37.071Z,13.6
2022-10-15T00:54:37.080Z,13.6
2022-10-15T00:55:37.076Z,13.6
2022-10-15T00:56:37.093Z,13.6
2022-10-15T00:57:37.096Z,13.6
2022-10-15T00:58:37.116Z,13.6
2022-10-15T00:59:37.110Z,13.6
2022-10-15T01:00:37.152Z,13.6
2022-10-15T01:01:37.144Z,13.7
2022-10-15T01:02:37.135Z,13.7
2022-10-15T01:03:37.045Z,13.7
2022-10-15T01:04:37.056Z,13.7
2022-10-15T01:05:37.152Z,13.7
2022-10-15T01:06:37.160Z,13.7
2022-10-15T01:07:37.063Z,13.7
2022-10-15T01:08:37.167Z,13.7
2022-10-15T01:09:37.071Z,13.7
2022-10-15T01:10:37.083Z,13.7
2022-10-15T01:11:37.090Z,13.7
2022-10-15T01:12:37.087Z,13.6
2022-10-15T01:13:37.090Z,13.6
2022-10-15T01:14:37.112Z,13.6
2022-10-15T01:15:37.048Z,13.6
2022-10-15T01:16:37.046Z,13.5
2022-10-15T01:17:37.129Z,13.5
2022-10-15T01:18:37.057Z,13.5
2022-10-15T01:19:37.045Z,13.5
2022-10-15T01:20:37.117Z,13.6
2022-10-15T01:21:37.049Z,13.6
2022-10-15T01:22:37.122Z,13.6
2022-10-15T01:23:37.074Z,13.6
2022-10-15T01:24:37.047Z,13.7
2022-10-15T01:25:37.045Z,13.7
2022-10-15T01:26:37.054Z,13.7
2022-10-15T01:27:37.054Z,13.7
2022-10-15T01:28:37.166Z,13.7
2022-10-15T01:29:37.061Z,13.7
2022-10-15T01:30:37.056Z,13.8
2022-10-15T01:31:37.144Z,13.8
2022-10-15T01:32:37.085Z,13.8
2022-10-15T01:33:37.058Z,13.8
2022-10-15T01:34:37.089Z,13.8
2022-10-15T01:35:37.055Z,13.8
2022-10-15T01:36:37.052Z,13.9
2022-10-15T01:37:37.113Z,13.8
2022-10-15T01:38:37.045Z,13.8
2022-10-15T01:39:37.101Z,13.7
2022-10-15T01:40:37.064Z,13.7
2022-10-15T01:41:37.060Z,13.7
2022-10-15T01:42:37.079Z,13.7
2022-10-15T01:43:37.057Z,13.7
2022-10-15T01:44:37.211Z,13.7
2022-10-15T01:45:37.060Z,13.8
2022-10-15T01:46:37.079Z,13.8
2022-10-15T01:47:37.086Z,13.8
2022-10-15T01:48:37.128Z,13.7
2022-10-15T01:49:37.131Z,13.7
2022-10-15T01:50:37.062Z,13.8
2022-10-15T01:51:37.060Z,13.7
2022-10-15T01:52:37.092Z,13.7
2022-10-15T01:53:37.078Z,13.7
2022-10-15T01:54:37.155Z,13.7
2022-10-15T01:55:37.069Z,13.8
2022-10-15T01:56:37.051Z,13.8
2022-10-15T01:57:37.064Z,13.7
2022-10-15T01:58:37.076Z,13.7
2022-10-15T01:59:37.213Z,13.7
2022-10-15T02:00:37.087Z,13.7
2022-10-15T02:01:37.118Z,13.7
2022-10-15T02:02:37.140Z,13.7
2022-10-15T02:03:37.070Z,13.7
2022-10-15T02:04:37.074Z,13.6
2022-10-15T02:05:37.059Z,13.7
2022-10-15T02:06:37.060Z,13.8
2022-10-15T02:07:37.101Z,13.8
2022-10-15T02:08:37.141Z,13.7
2022-10-15T02:09:37.077Z,13.8
2022-10-15T02:10:37.118Z,13.7
2022-10-15T02:11:37.073Z,13.8
2022-10-15T02:12:37.061Z,13.8
2022-10-15T02:13:37.033Z,13.8
2022-10-15T02:14:37.106Z,13.8
2022-10-15T02:15:37.050Z,13.7
2022-10-15T02:16:37.055Z,13.7
2022-10-15T02:17:37.072Z,13.7
2022-10-15T02:18:37.075Z,13.7
2022-10-15T02:19:37.142Z,13.7
2022-10-15T02:20:37.072Z,13.7
2022-10-15T02:21:37.082Z,13.7
2022-10-15T02:22:37.101Z,13.7
2022-10-15T02:23:37.158Z,13.8
2022-10-15T02:24:37.087Z,13.8
2022-10-15T02:25:37.159Z,13.7
2022-10-15T02:26:37.060Z,13.9
2022-10-15T02:27:37.061Z,13.9
2022-10-15T02:28:37.098Z,13.8
2022-10-15T02:29:37.062Z,13.8
2022-10-15T02:30:37.237Z,13.8
2022-10-15T02:31:37.085Z,13.7
2022-10-15T02:32:37.080Z,13.7
2022-10-15T02:33:37.079Z,13.8
2022-10-15T02:34:37.105Z,13.7
2022-10-15T02:35:37.050Z,13.9
2022-10-15T02:36:37.063Z,13.9
2022-10-15T02:37:37.062Z,13.9
2022-10-15T02:38:37.129Z,13.9
2022-10-15T02:39:37.083Z,14
2022-10-15T02:40:37.056Z,14
2022-10-15T02:41:37.054Z,13.9
2022-10-15T02:42:37.053Z,13.9
2022-10-15T02:43:37.063Z,13.9
2022-10-15T02:44:37.068Z,13.8
2022-10-15T02:45:37.096Z,13.7
2022-10-15T02:46:37.062Z,13.7
2022-10-15T02:47:37.065Z,13.7
2022-10-15T02:48:37.057Z,13.7
2022-10-15T02:49:37.091Z,13.7
2022-10-15T02:50:37.054Z,13.7
2022-10-15T02:51:37.058Z,13.7
2022-10-15T02:52:37.065Z,13.7
2022-10-15T02:53:37.111Z,13.7
2022-10-15T02:54:37.061Z,13.7
2022-10-15T02:55:37.062Z,13.7
2022-10-15T02:56:37.053Z,13.7
2022-10-15T02:57:37.075Z,13.6
2022-10-15T02:58:37.057Z,13.6
2022-10-15T02:59:37.065Z,13.6
2022-10-15T03:00:37.071Z,13.6
2022-10-15T03:01:37.087Z,13.6
2022-10-15T03:02:37.051Z,13.6
2022-10-15T03:03:37.105Z,13.5
2022-10-15T03:04:37.074Z,13.6
2022-10-15T03:05:37.056Z,13.5
2022-10-15T03:06:37.095Z,13.5
2022-10-15T03:07:37.055Z,13.6
2022-10-15T03:08:37.131Z,13.6
2022-10-15T03:09:37.138Z,13.5
2022-10-15T03:10:37.139Z,13.5
2022-10-15T03:11:37.142Z,13.5
2022-10-15T03:12:37.176Z,13.5
2022-10-15T03:13:37.147Z,13.4
2022-10-15T03:14:37.053Z,13.5
2022-10-15T03:15:37.063Z,13.5
2022-10-15T03:16:37.164Z,13.5
2022-10-15T03:17:37.059Z,13.5
2022-10-15T03:18:40.463Z,13.5
2022-10-15T03:19:37.083Z,13.5
2022-10-15T03:20:37.092Z,13.4
2022-10-15T03:21:37.096Z,13.4
2022-10-15T03:22:37.102Z,13.4
2022-10-15T03:23:37.188Z,13.4
2022-10-15T03:24:37.119Z,13.4
2022-10-15T03:25:37.130Z,13.4
2022-10-15T03:26:37.138Z,13.4
2022-10-15T03:27:37.155Z,13.4
2022-10-15T03:28:37.331Z,13.4
2022-10-15T03:29:37.272Z,13.5
2022-10-15T03:30:37.142Z,13.5
2022-10-15T03:31:37.322Z,13.4
2022-10-15T03:32:37.312Z,13.4
2022-10-15T03:33:37.340Z,13.3
2022-10-15T03:34:37.436Z,13.3
2022-10-15T03:35:37.119Z,13.3
2022-10-15T03:36:37.097Z,13.3
2022-10-15T03:37:37.115Z,13.4
2022-10-15T03:38:37.114Z,13.4
2022-10-15T03:39:37.118Z,13.3
2022-10-15T03:40:37.114Z,13.3
2022-10-15T03:41:37.180Z,13.3
2022-10-15T03:42:37.038Z,13.2
2022-10-15T03:43:40.247Z,13.3
2022-10-15T03:44:37.083Z,13.3
2022-10-15T03:45:37.152Z,13.3
2022-10-15T03:46:37.163Z,13.4
2022-10-15T03:47:37.229Z,13.3
2022-10-15T03:48:37.175Z,13.3
2022-10-15T03:49:37.077Z,13.3
2022-10-15T03:50:37.122Z,13.3
2022-10-15T03:51:37.195Z,13.3
2022-10-15T03:52:37.085Z,13.3
2022-10-15T03:53:37.142Z,13.4
2022-10-15T03:54:37.077Z,13.4
2022-10-15T03:55:37.119Z,13.4
2022-10-15T03:56:37.120Z,13.4
2022-10-15T03:57:37.130Z,13.4
2022-10-15T03:58:37.065Z,13.4
2022-10-15T03:59:37.218Z,13.4
2022-10-15T04:00:37.144Z,13.4
2022-10-15T04:01:37.281Z,13.4
2022-10-15T04:02:37.153Z,13.4
2022-10-15T04:03:37.175Z,13.4
2022-10-15T04:04:37.177Z,13.4
2022-10-15T04:05:37.084Z,13.4
2022-10-15T04:06:37.080Z,13.4
2022-10-15T04:07:37.085Z,13.4
2022-10-15T04:08:37.196Z,13.3
2022-10-15T04:09:37.112Z,13.3
2022-10-15T04:10:37.048Z,13.4
2022-10-15T04:11:37.212Z,13.4
2022-10-15T04:12:37.133Z,13.4
2022-10-15T04:13:37.071Z,13.4
2022-10-15T04:14:37.150Z,13.4
2022-10-15T04:15:37.089Z,13.4
2022-10-15T04:16:37.069Z,13.4
2022-10-15T04:17:37.076Z,13.4
2022-10-15T04:18:37.074Z,13.4
2022-10-15T04:19:37.171Z,13.4
2022-10-15T04:20:37.166Z,13.4
2022-10-15T04:21:37.061Z,13.4
2022-10-15T04:22:37.068Z,13.3
2022-10-15T04:23:37.092Z,13.3
2022-10-15T04:24:37.088Z,13.3
2022-10-15T04:25:37.106Z,13.3
2022-10-15T04:26:37.211Z,13.2
2022-10-15T04:27:37.115Z,13.1
2022-10-15T04:28:37.123Z,13.2
2022-10-15T04:29:37.128Z,13.1
2022-10-15T04:30:37.168Z,13.1
2022-10-15T04:31:37.068Z,13.1
2022-10-15T04:32:37.167Z,13.1
2022-10-15T04:33:37.152Z,13.1
2022-10-15T04:34:37.111Z,13
2022-10-15T04:35:37.194Z,13
2022-10-15T04:36:37.089Z,13
2022-10-15T04:37:37.153Z,12.9
2022-10-15T04:38:37.148Z,12.9
2022-10-15T04:39:37.201Z,13
2022-10-15T04:40:37.199Z,13
2022-10-15T04:41:37.207Z,13
2022-10-15T04:42:37.235Z,13
2022-10-15T04:43:37.319Z,13
2022-10-15T04:44:37.304Z,13
2022-10-15T04:45:37.345Z,13
2022-10-15T04:46:37.307Z,13
2022-10-15T04:47:37.094Z,12.9
2022-10-15T04:48:40.350Z,12.8
2022-10-15T04:49:37.085Z,12.8
2022-10-15T04:50:37.107Z,12.8
2022-10-15T04:51:37.077Z,12.8
2022-10-15T04:52:37.067Z,12.8
2022-10-15T04:53:37.096Z,12.9
2022-10-15T04:54:37.205Z,12.9
2022-10-15T04:55:37.072Z,12.9
2022-10-15T04:56:37.097Z,13
2022-10-15T04:57:37.225Z,13
2022-10-15T04:58:37.113Z,13
2022-10-15T04:59:37.234Z,13.1
2022-10-15T05:00:37.117Z,13.1
2022-10-15T05:01:37.139Z,13.1
2022-10-15T05:02:37.217Z,13.1
2022-10-15T05:03:39.712Z,13.2
2022-10-15T05:04:37.075Z,13.2
2022-10-15T05:05:37.152Z,13.2
2022-10-15T05:06:37.175Z,13.1
2022-10-15T05:07:37.069Z,13.2
2022-10-15T05:08:37.098Z,13.1
2022-10-15T05:09:37.326Z,13.2
2022-10-15T05:10:37.089Z,13.2
2022-10-15T05:11:37.132Z,13.3
2022-10-15T05:12:37.129Z,13.3
2022-10-15T05:13:37.208Z,13.3
2022-10-15T05:14:37.111Z,13.3
2022-10-15T05:15:37.218Z,13.2
2022-10-15T05:16:37.140Z,13.3
2022-10-15T05:17:37.130Z,13.2
2022-10-15T05:18:37.265Z,13.3
2022-10-15T05:19:37.271Z,13.2
2022-10-15T05:20:37.243Z,13.2
2022-10-15T05:21:37.422Z,13.2
2022-10-15T05:22:37.251Z,13.2
2022-10-15T05:23:37.357Z,13.2
2022-10-15T05:24:37.413Z,13.2
2022-10-15T05:25:37.178Z,13.1
2022-10-15T05:26:37.188Z,13.2
2022-10-15T05:27:37.092Z,13.2
2022-10-15T05:28:37.179Z,13.2
2022-10-15T05:29:37.209Z,13.2
2022-10-15T05:30:37.075Z,13.2
2022-10-15T05:31:37.136Z,13.2
2022-10-15T05:32:37.094Z,13.3
2022-10-15T05:33:37.075Z,13.3
2022-10-15T05:34:37.138Z,13.2
2022-10-15T05:35:37.137Z,13.3
2022-10-15T05:36:37.152Z,13.2
2022-10-15T05:37:37.151Z,13.3
2022-10-15T05:38:37.170Z,13.2
2022-10-15T05:39:37.321Z,13.3
2022-10-15T05:40:37.173Z,13.4
2022-10-15T05:41:37.126Z,13.3
2022-10-15T05:42:37.079Z,13.3
2022-10-15T05:43:40.360Z,13.3
2022-10-15T05:44:37.134Z,13.3
2022-10-15T05:45:37.104Z,13.4
2022-10-15T05:46:37.119Z,13.3
2022-10-15T05:47:37.125Z,13.3
2022-10-15T05:48:37.074Z,13.3
2022-10-15T05:49:37.126Z,13.4
2022-10-15T05:50:37.157Z,13.4
2022-10-15T05:51:37.147Z,13.3
2022-10-15T05:52:37.159Z,13.4
2022-10-15T05:53:37.075Z,13.4
2022-10-15T05:54:37.083Z,13.4
2022-10-15T05:55:37.104Z,13.4
2022-10-15T05:56:37.169Z,13.4
2022-10-15T05:57:37.185Z,13.4
2022-10-15T05:58:37.686Z,13.4
2022-10-15T05:59:37.220Z,13.3
2022-10-15T06:00:37.205Z,13.4
2022-10-15T06:01:37.167Z,13.4
2022-10-15T06:02:37.266Z,13.5
2022-10-15T06:03:37.127Z,13.5
2022-10-15T06:04:37.092Z,13.5
2022-10-15T06:05:37.134Z,13.4
2022-10-15T06:06:37.071Z,13.4
2022-10-15T06:07:37.144Z,13.3
2022-10-15T06:08:37.146Z,13.3
2022-10-15T06:09:37.107Z,13.3
2022-10-15T06:10:37.089Z,13.3
2022-10-15T06:11:37.167Z,13.4
2022-10-15T06:12:37.077Z,13.4
2022-10-15T06:13:37.186Z,13.4
2022-10-15T06:14:37.197Z,13.4
2022-10-15T06:15:37.191Z,13.3
2022-10-15T06:16:37.096Z,13.3
2022-10-15T06:17:37.113Z,13.2
2022-10-15T06:18:37.074Z,13.3
2022-10-15T06:19:37.074Z,13.3
2022-10-15T06:20:37.073Z,13.3
2022-10-15T06:21:37.130Z,13.3
2022-10-15T06:23:37.122Z,13.3
2022-10-15T06:24:37.075Z,13.2
2022-10-15T06:25:37.155Z,13.2
2022-10-15T06:26:37.107Z,13.2
2022-10-15T06:27:37.082Z,13.2
2022-10-15T06:28:37.180Z,13.2
2022-10-15T06:29:37.077Z,13.1
2022-10-15T06:30:37.183Z,13.1
2022-10-15T06:31:37.198Z,13.1
2022-10-15T06:32:37.095Z,13.1
2022-10-15T06:33:37.108Z,13.1
2022-10-15T06:34:37.111Z,13
2022-10-15T06:35:37.124Z,13.1
2022-10-15T06:36:37.133Z,13.1
2022-10-15T06:37:37.086Z,13.2
2022-10-15T06:38:37.134Z,13.1
2022-10-15T06:39:37.146Z,13.2
2022-10-15T06:40:45.904Z,13.2
2022-10-15T06:41:37.331Z,13.2
2022-10-15T06:42:37.413Z,13.2
2022-10-15T06:43:37.376Z,13.2
2022-10-15T06:44:37.425Z,13.2
2022-10-15T06:45:37.497Z,13.3
2022-10-15T06:46:37.600Z,13.4
2022-10-15T06:47:37.095Z,13.4
2022-10-15T06:48:37.102Z,13.5
2022-10-15T06:49:37.094Z,13.6
2022-10-15T06:50:37.080Z,13.6
2022-10-15T06:51:37.089Z,13.6
2022-10-15T06:52:37.076Z,13.7
2022-10-15T06:53:37.106Z,13.8
2022-10-15T06:54:37.160Z,13.9
2022-10-15T06:55:37.158Z,13.9
2022-10-15T06:56:37.157Z,13.9
2022-10-15T06:57:37.171Z,14
2022-10-15T06:58:37.170Z,14
2022-10-15T06:59:40.429Z,14.1
2022-10-15T07:00:37.222Z,14.1
2022-10-15T07:01:39.894Z,14.1
2022-10-15T07:02:37.194Z,14.2
2022-10-15T07:03:37.102Z,14.3
2022-10-15T07:04:37.086Z,14.3
2022-10-15T07:05:37.219Z,14.4
2022-10-15T07:06:37.123Z,14.4
2022-10-15T07:07:37.135Z,14.5
2022-10-15T07:08:37.140Z,14.6
2022-10-15T07:09:37.132Z,14.5
2022-10-15T07:10:37.137Z,14.5
2022-10-15T07:11:37.163Z,14.5
2022-10-15T07:12:37.182Z,14.5
2022-10-15T07:13:37.174Z,14.6
2022-10-15T07:14:40.095Z,14.5
2022-10-15T07:15:37.103Z,14.5
2022-10-15T07:16:37.188Z,14.5
2022-10-15T07:17:37.136Z,14.5
2022-10-15T07:18:37.097Z,14.5
2022-10-15T07:19:37.111Z,14.5
2022-10-15T07:20:37.106Z,14.4
2022-10-15T07:21:37.114Z,14.4
2022-10-15T07:22:37.130Z,14.4
2022-10-15T07:23:37.133Z,14.4
2022-10-15T07:24:37.141Z,14.4
2022-10-15T07:25:37.143Z,14.4
2022-10-15T07:26:37.137Z,14.4
2022-10-15T07:27:37.166Z,14.4
2022-10-15T07:28:37.185Z,14.5
2022-10-15T07:30:37.104Z,14.6
2022-10-15T07:31:37.255Z,14.7
2022-10-15T07:32:37.189Z,14.6
2022-10-15T07:33:37.206Z,14.7
2022-10-15T07:34:37.090Z,14.8
2022-10-15T07:35:37.113Z,14.9
2022-10-15T07:36:37.215Z,15
2022-10-15T07:37:37.126Z,15
2022-10-15T07:38:37.123Z,15.2
2022-10-15T07:39:40.667Z,15.2
2022-10-15T07:40:37.255Z,15.3
2022-10-15T07:41:37.146Z,15.2
2022-10-15T07:42:37.103Z,15.1
2022-10-15T07:43:37.115Z,15.2
2022-10-15T07:44:37.171Z,15.2
2022-10-15T07:45:37.172Z,15.1
2022-10-15T07:46:37.164Z,15.1
2022-10-15T07:47:37.178Z,15.1
2022-10-15T07:48:37.182Z,15.3
2022-10-15T07:49:37.195Z,15.3
2022-10-15T07:50:39.191Z,15.3
2022-10-15T07:51:37.096Z,15.3
2022-10-15T07:52:37.111Z,15.3
2022-10-15T07:53:37.090Z,15.3
2022-10-15T07:54:37.127Z,15.4
2022-10-15T07:55:37.127Z,15.4
2022-10-15T07:56:37.241Z,15.4
2022-10-15T07:57:37.149Z,15.4
2022-10-15T07:58:37.256Z,15.4
2022-10-15T07:59:37.158Z,15.4
2022-10-15T08:00:37.166Z,15.3
2022-10-15T08:01:37.163Z,15.4
2022-10-15T08:02:37.184Z,15.4
2022-10-15T08:03:37.187Z,15.4
2022-10-15T08:04:37.192Z,15.6
2022-10-15T08:05:37.201Z,15.6
2022-10-15T08:06:37.105Z,15.7
2022-10-15T08:07:37.094Z,15.7
2022-10-15T08:08:37.101Z,15.8
2022-10-15T08:09:37.187Z,15.9
2022-10-15T08:10:37.124Z,15.8
2022-10-15T08:11:37.229Z,15.8
2022-10-15T08:12:37.128Z,15.9
2022-10-15T08:13:37.146Z,15.9
2022-10-15T08:14:37.172Z,16
2022-10-15T08:15:37.159Z,16
2022-10-15T08:16:37.165Z,16
2022-10-15T08:17:37.164Z,16
2022-10-15T08:18:37.171Z,16
2022-10-15T08:19:37.149Z,16
2022-10-15T08:20:37.086Z,16.1
2022-10-15T08:21:37.183Z,16.2
2022-10-15T08:22:37.098Z,16.3
2022-10-15T08:23:37.213Z,16.3
2022-10-15T08:24:37.108Z,16.3
2022-10-15T08:25:37.133Z,16.3
2022-10-15T08:26:37.236Z,16.3
2022-10-15T08:27:37.240Z,16.1
2022-10-15T08:28:37.232Z,16.1
2022-10-15T08:29:37.145Z,16
2022-10-15T08:30:37.149Z,16
2022-10-15T08:31:37.114Z,16
2022-10-15T08:32:37.169Z,16.1
2022-10-15T08:33:37.112Z,16.1
2022-10-15T08:34:37.105Z,16
2022-10-15T08:35:37.189Z,16.1
2022-10-15T08:36:37.191Z,16.1
2022-10-15T08:37:37.196Z,16.1
2022-10-15T08:38:37.203Z,16.1
2022-10-15T08:39:37.209Z,16.2
2022-10-15T08:40:37.212Z,16.3
2022-10-15T08:41:37.116Z,16.4
2022-10-15T08:42:37.560Z,16.4
2022-10-15T08:43:37.456Z,16.4
2022-10-15T08:44:37.137Z,16.5
2022-10-15T08:45:37.123Z,16.4
2022-10-15T08:46:37.129Z,16.5
2022-10-15T08:47:37.153Z,16.5
2022-10-15T08:48:37.102Z,16.5
2022-10-15T08:49:37.108Z,16.4
2022-10-15T08:50:37.146Z,16.5
2022-10-15T08:51:37.103Z,16.4
2022-10-15T08:52:37.098Z,16.4
2022-10-15T08:53:37.108Z,16.3
2022-10-15T08:54:37.116Z,16.2
2022-10-15T08:55:37.105Z,16.3
2022-10-15T08:56:37.099Z,16.4
2022-10-15T08:57:37.121Z,16.5
2022-10-15T08:58:39.699Z,16.6
2022-10-15T08:59:37.111Z,16.6
2022-10-15T09:00:37.103Z,16.7
2022-10-15T09:01:37.125Z,16.7
2022-10-15T09:02:37.140Z,16.6
2022-10-15T09:03:37.100Z,16.7
2022-10-15T09:04:37.104Z,16.8
2022-10-15T09:05:37.108Z,16.8
2022-10-15T09:06:37.188Z,16.8
2022-10-15T09:07:37.286Z,16.9
2022-10-15T09:08:37.102Z,16.9
2022-10-15T09:09:37.126Z,16.9
2022-10-15T09:10:37.086Z,17.1
2022-10-15T09:11:37.140Z,17.2
2022-10-15T09:12:37.107Z,17.3
2022-10-15T09:14:37.150Z,17.3
2022-10-15T09:15:37.107Z,17.2
2022-10-15T09:16:37.151Z,17.2
2022-10-15T09:17:37.091Z,17.2
2022-10-15T09:18:37.116Z,17.2
2022-10-15T09:19:37.100Z,17.3
2022-10-15T09:20:37.130Z,17.2
2022-10-15T09:21:37.174Z,17.4
2022-10-15T09:22:37.155Z,17.5
2022-10-15T09:23:37.095Z,17.6
2022-10-15T09:24:37.103Z,17.6
2022-10-15T09:25:37.146Z,17.7
2022-10-15T09:26:37.095Z,17.7
2022-10-15T09:27:37.105Z,17.8
2022-10-15T09:28:37.171Z,17.8
2022-10-15T09:29:37.159Z,17.8
2022-10-15T09:30:37.118Z,17.6
2022-10-15T09:31:37.132Z,17.4
2022-10-15T09:32:37.111Z,17.4
2022-10-15T09:33:37.143Z,17.4
2022-10-15T09:34:37.118Z,17.4
2022-10-15T09:35:37.122Z,17.4
2022-10-15T09:36:37.113Z,17.4
2022-10-15T09:37:37.151Z,17.4
2022-10-15T09:38:37.111Z,17.4
2022-10-15T09:39:37.214Z,17.5
2022-10-15T09:40:37.099Z,17.5
2022-10-15T09:41:37.130Z,17.6
2022-10-15T09:42:37.146Z,17.7
2022-10-15T09:43:37.111Z,17.8
2022-10-15T09:44:37.119Z,18
2022-10-15T09:45:37.151Z,18.1
2022-10-15T09:46:37.131Z,18.3
2022-10-15T09:47:37.121Z,18.4
2022-10-15T09:48:37.096Z,18.4
2022-10-15T09:49:37.110Z,18.5
2022-10-15T09:50:37.122Z,18.8
2022-10-15T09:51:37.116Z,18.9
2022-10-15T09:52:37.166Z,19
2022-10-15T09:53:37.110Z,19.1
2022-10-15T09:54:37.104Z,19
2022-10-15T09:55:37.114Z,19.2
2022-10-15T09:56:37.133Z,19.3
2022-10-15T09:57:37.109Z,19.1
2022-10-15T09:58:37.107Z,19
2022-10-15T09:59:37.146Z,19
2022-10-15T10:00:37.156Z,18.8
2022-10-15T10:01:37.255Z,18.6
2022-10-15T10:02:37.246Z,18.6
2022-10-15T10:03:37.112Z,18.6
2022-10-15T10:04:37.119Z,18.7
2022-10-15T10:05:37.120Z,18.9
2022-10-15T10:06:37.114Z,19
2022-10-15T10:07:37.117Z,18.9
2022-10-15T10:08:37.203Z,18.8
2022-10-15T10:09:37.115Z,18.8
2022-10-15T10:10:37.227Z,18.8
2022-10-15T10:11:37.106Z,18.7
2022-10-15T10:12:37.180Z,18.6
2022-10-15T10:13:37.192Z,18.7
2022-10-15T10:14:37.116Z,18.5
2022-10-15T10:15:37.138Z,18.6
2022-10-15T10:16:37.240Z,18.5
2022-10-15T10:17:37.223Z,18.5
2022-10-15T10:18:37.141Z,18.6
2022-10-15T10:19:37.128Z,18.5
2022-10-15T10:20:37.110Z,18.4
2022-10-15T10:21:37.124Z,18.4
2022-10-15T10:22:37.150Z,18.4
2022-10-15T10:23:37.256Z,18.2
2022-10-15T10:24:37.166Z,18.1
2022-10-15T10:25:37.171Z,18.1
2022-10-15T10:26:37.186Z,18.1
2022-10-15T10:27:37.193Z,18
2022-10-15T10:28:40.520Z,18.1
2022-10-15T10:29:37.302Z,18.2
2022-10-15T10:30:37.138Z,18.2
2022-10-15T10:31:37.231Z,18.3
2022-10-15T10:32:37.221Z,18.5
2022-10-15T10:33:37.218Z,18.5
2022-10-15T10:34:37.458Z,18.7
2022-10-15T10:35:37.310Z,18.8
2022-10-15T10:36:40.685Z,18.9
2022-10-15T10:37:37.142Z,19
2022-10-15T10:38:37.158Z,19.1
2022-10-15T10:39:37.634Z,19.3
2022-10-15T10:40:37.116Z,19.6
2022-10-15T10:41:37.134Z,19.6
2022-10-15T10:42:37.121Z,19.8
2022-10-15T10:43:39.254Z,19.9
2022-10-15T10:44:37.189Z,20
2022-10-15T10:45:37.202Z,20.2
2022-10-15T10:46:37.221Z,20.3
2022-10-15T10:47:37.207Z,20.6
2022-10-15T10:48:37.125Z,20.9
2022-10-15T10:49:37.250Z,20.9
2022-10-15T10:50:37.130Z,20.7
2022-10-15T10:51:37.136Z,20.8
2022-10-15T10:52:37.251Z,20.7
2022-10-15T10:53:37.123Z,20.3
2022-10-15T10:54:37.145Z,20.3
2022-10-15T10:55:37.166Z,20.2
2022-10-15T10:56:37.164Z,20.2
2022-10-15T10:57:37.167Z,20.2
2022-10-15T10:58:37.180Z,20.2
2022-10-15T10:59:37.191Z,20.3
2022-10-15T11:00:37.158Z,20.3
2022-10-15T11:01:37.234Z,20
2022-10-15T11:02:37.172Z,20.1
2022-10-15T11:03:37.207Z,20
2022-10-15T11:04:37.225Z,19.9
2022-10-15T11:05:37.225Z,19.9
2022-10-15T11:06:37.135Z,19.8
2022-10-15T11:07:37.138Z,19.8
2022-10-15T11:08:37.140Z,19.6
2022-10-15T11:09:37.171Z,19.5
2022-10-15T11:10:37.175Z,19.2
2022-10-15T11:11:37.161Z,19.2
2022-10-15T11:12:37.129Z,19.2
2022-10-15T11:13:37.182Z,19.2
2022-10-15T11:14:37.190Z,19.2
2022-10-15T11:15:37.129Z,19
2022-10-15T11:16:37.209Z,19
2022-10-15T11:17:37.221Z,19
2022-10-15T11:18:37.203Z,19
2022-10-15T11:20:05.864Z,19
2022-10-15T11:20:53.186Z,18.8
2022-10-15T11:21:37.133Z,18.7
2022-10-15T11:22:37.145Z,18.9
2022-10-15T11:23:37.232Z,19
2022-10-15T11:24:48.369Z,18.9
2022-10-15T11:25:37.174Z,19
2022-10-15T11:26:46.152Z,19
2022-10-15T11:27:37.150Z,19
2022-10-15T11:28:37.226Z,19
2022-10-15T11:29:37.226Z,19
2022-10-15T11:30:37.149Z,18.9
2022-10-15T11:31:44.232Z,19
2022-10-15T11:32:54.454Z,19.1
2022-10-15T11:33:37.212Z,19.2
2022-10-15T11:34:37.245Z,19.1
2022-10-15T11:35:52.336Z,19.1
2022-10-15T11:36:37.125Z,19
2022-10-15T11:37:37.224Z,19
2022-10-15T11:38:37.237Z,19
2022-10-15T11:39:37.252Z,18.9
2022-10-15T11:40:37.158Z,18.8
2022-10-15T11:41:37.172Z,18.8
2022-10-15T11:42:37.151Z,18.8
2022-10-15T11:43:37.162Z,18.7
2022-10-15T11:44:37.173Z,18.7
2022-10-15T11:45:37.173Z,18.8
2022-10-15T11:46:37.199Z,18.7
2022-10-15T11:47:37.187Z,18.5
2022-10-15T11:48:37.151Z,18.5
2022-10-15T11:49:37.184Z,18.4
2022-10-15T11:50:37.176Z,18.5
2022-10-15T11:51:37.231Z,18.6
2022-10-15T11:52:37.210Z,18.5
2022-10-15T11:53:37.228Z,18.5
2022-10-15T11:54:37.144Z,18.5
2022-10-15T11:55:37.144Z,18.5
2022-10-15T11:56:38.925Z,18.4
2022-10-15T11:57:37.253Z,18.3
2022-10-15T11:58:37.150Z,18.3
2022-10-15T11:59:37.164Z,18.2
2022-10-15T12:00:37.136Z,18.1
2022-10-15T12:01:37.189Z,18
2022-10-15T12:02:37.182Z,18.1
2022-10-15T12:03:37.181Z,18.1
2022-10-15T12:04:37.219Z,18.1
2022-10-15T12:05:37.197Z,18.1
2022-10-15T12:06:37.206Z,18.2
2022-10-15T12:07:37.204Z,18.1
2022-10-15T12:08:37.235Z,18
2022-10-15T12:09:37.121Z,18
2022-10-15T12:10:37.156Z,18.2
2022-10-15T12:11:37.146Z,18.2
2022-10-15T12:12:37.260Z,18.1
2022-10-15T12:13:37.125Z,18.2
2022-10-15T12:14:37.156Z,18.2
2022-10-15T12:15:37.163Z,18.2
2022-10-15T12:16:37.207Z,18.2
2022-10-15T12:17:37.179Z,18.2
2022-10-15T12:18:37.183Z,18.2
2022-10-15T12:19:37.213Z,18.2
2022-10-15T12:20:37.172Z,18.2
2022-10-15T12:21:37.141Z,18.2
2022-10-15T12:22:37.283Z,18.2
2022-10-15T12:23:37.159Z,18.3
2022-10-15T12:24:37.207Z,18.2
2022-10-15T12:25:37.155Z,18.2
2022-10-15T12:26:37.139Z,18.2
2022-10-15T12:27:37.241Z,18.3
2022-10-15T12:28:37.314Z,18.3
2022-10-15T12:29:37.260Z,18.4
2022-10-15T12:30:37.146Z,18.3
2022-10-15T12:31:38.531Z,18.2
2022-10-15T12:32:37.379Z,18.2
2022-10-15T12:33:37.446Z,18.2
2022-10-15T12:34:37.431Z,18.1
2022-10-15T12:35:37.451Z,18.1
2022-10-15T12:36:37.174Z,18.1
2022-10-15T12:37:37.135Z,18.1
2022-10-15T12:38:37.208Z,18.2
2022-10-15T12:39:53.212Z,18.1
2022-10-15T12:40:37.143Z,18.2
2022-10-15T12:41:37.223Z,18.2
2022-10-15T12:42:37.241Z,18.2
2022-10-15T12:43:37.239Z,18.1
2022-10-15T12:44:37.249Z,18
2022-10-15T12:45:40.006Z,18
2022-10-15T12:46:37.158Z,18.1
2022-10-15T12:47:37.170Z,18.2
2022-10-15T12:48:37.142Z,18.1
2022-10-15T12:49:37.155Z,18.2
2022-10-15T12:50:37.153Z,18.3
2022-10-15T12:51:37.298Z,18.3
2022-10-15T12:52:37.198Z,18.4
2022-10-15T12:54:37.166Z,18.7
2022-10-15T12:55:37.219Z,18.9
2022-10-15T12:56:37.212Z,18.8
2022-10-15T12:57:37.151Z,18.9
2022-10-15T12:58:37.155Z,19
2022-10-15T12:59:37.246Z,19.1
2022-10-15T13:00:37.210Z,19.3
2022-10-15T13:01:37.256Z,19.3
2022-10-15T13:02:37.205Z,19.3
2022-10-15T13:03:37.139Z,19.2
2022-10-15T13:04:37.340Z,19.3
2022-10-15T13:05:37.176Z,19.4
2022-10-15T13:06:37.185Z,19.3
2022-10-15T13:07:37.300Z,19.1
2022-10-15T13:08:37.188Z,19.1
2022-10-15T13:09:37.210Z,19.1
2022-10-15T13:10:37.141Z,19.1
2022-10-15T13:11:37.320Z,19.1
2022-10-15T13:12:37.227Z,19.2
2022-10-15T13:13:37.234Z,19.2
2022-10-15T13:14:37.245Z,19.3
2022-10-15T13:15:37.158Z,19.4
2022-10-15T13:16:37.143Z,19.3
2022-10-15T13:17:37.156Z,19.3
2022-10-15T13:18:37.264Z,19.4
2022-10-15T13:19:37.170Z,19.5
2022-10-15T13:20:37.153Z,19.7
2022-10-15T13:21:37.519Z,19.8
2022-10-15T13:22:37.602Z,20
2022-10-15T13:23:37.180Z,20.1
2022-10-15T13:24:37.283Z,20.1
2022-10-15T13:25:37.200Z,20
2022-10-15T13:26:37.210Z,20